Time;durP1;ratioP1;P1;durP2;ratioP2;P2;SDS_P1;SDS_P2;PMS_P1;PMS_P2;Temp;Humidity;BMP_temperature;BMP_pressure;BME280_temperature;BME280_humidity;BME280_pressure;Samples;Min_cycle;Max_cycle;Signal;HPM_P1;HPM_P2
2022/08/12 00:44:22;;;;;;;1.50;1.30;;;;;;;;;;5009806;28;20041;-86
2022/08/12 00:46:49;;;;;;;;;;;24.80;44.50;;;;;;5010314;28;20017;-86
2022/08/12 00:49:16;;;;;;;1.85;1.33;;;;;;;;;;5005043;28;20181;-87
2022/08/12 00:54:27;;;;;;;1.83;1.55;;;;;;;;;;5009430;28;20036;-86
2022/08/12 00:56:57;;;;;;;2.00;1.30;;;25.00;42.40;;;;;;5009324;28;20045;-86
2022/08/12 00:59:23;;;;;;;4.75;1.30;;;;;;;;;;4992125;28;20125;-86
2022/08/12 01:01:52;;;;;;;2.28;1.63;;;24.50;43.40;;;;;;5007963;28;20046;-87
2022/08/12 01:12:36;;;;;;;6.68;1.63;;;;;;;;;;5000808;28;20033;-86
2022/08/12 01:15:02;;;;;;;;;;;;;;;;;;4992171;28;20057;-87
2022/08/12 01:17:29;;;;;;;3.42;0.93;;;24.20;43.70;;;;;;5009666;28;19909;-86
2022/08/12 01:19:56;;;;;;;3.03;2.00;;;;;;;;;;5009832;28;20037;-86
2022/08/12 01:22:42;;;;;;;1.40;1.23;;;;;;;;;;5009201;28;20125;-86
2022/08/12 01:25:21;;;;;;;3.88;1.67;;;23.80;48.80;;;;;;4991732;28;20175;-85
2022/08/12 01:27:49;;;;;;;1.98;1.30;;;24.30;44.50;;;;;;5008657;28;20037;-87
2022/08/12 01:30:16;;;;;;;2.35;1.90;;;;;;;;;;5009294;28;20518;-86
2022/08/12 01:32:46;;;;;;;1.38;0.98;;;;;;;;;;5009201;28;20033;-87
2022/08/12 01:35:15;;;;;;;2.50;1.30;;;24.40;43.70;;;;;;4991525;28;20034;-85
2022/08/12 01:38:01;;;;;;;2.08;1.15;;;24.40;44.10;;;;;;4991701;28;20029;-87
2022/08/12 01:40:30;;;;;;;1.83;1.33;;;24.60;43.90;;;;;;4998521;28;20141;-86
2022/08/12 01:42:57;;;;;;;3.33;2.00;;;;;;;;;;4977542;28;20486;-85
2022/08/12 01:45:23;;;;;;;;;;;;;;;;;;5009833;28;20022;-86
2022/08/12 01:47:56;;;;;;;2.10;1.35;;;;;;;;;;5009020;28;20370;-85
2022/08/12 01:50:40;;;;;;;5.47;2.28;;;24.50;44.70;;;;;;5009273;28;20034;-85
2022/08/12 01:53:09;;;;;;;1.75;1.27;;;;;;;;;;4990981;28;20483;-86
2022/08/12 01:55:40;;;;;;;2.63;1.40;;;24.50;44.40;;;;;;5009011;28;20053;-87
2022/08/12 02:01:24;;;;;;;1.63;1.30;;;;;;;;;;5003810;28;20554;-86
2022/08/12 02:13:14;;;;;;;5.55;1.42;;;;;;;;;;4952190;29;20066;-86
2022/08/12 02:15:56;;;;;;;1.35;1.23;;;;;;;;;;4970336;28;20050;-86
2022/08/12 02:18:49;;;;;;;1.73;1.13;;;23.30;46.20;;;;;;4971590;28;20261;-85
2022/08/12 02:21:15;;;;;;;2.22;1.45;;;;;;;;;;4952309;28;20121;-86
2022/08/12 02:23:42;;;;;;;4.75;1.55;;;;;;;;;;4970924;28;20537;-86
2022/08/12 02:26:11;;;;;;;1.25;0.98;;;23.50;45.30;;;;;;4970757;28;20373;-85
2022/08/12 02:28:38;;;;;;;4.55;1.20;;;;;;;;;;4970825;28;20057;-86
2022/08/12 02:31:08;;;;;;;2.55;1.45;;;;;;;;;;4970314;28;20409;-86
2022/08/12 02:33:36;;;;;;;2.08;1.60;;;;;;;;;;4971015;28;20472;-86
2022/08/12 02:36:02;;;;;;;3.85;2.00;;;;;;;;;;4970392;28;20081;-86
2022/08/12 02:38:30;;;;;;;2.23;1.80;;;;;;;;;;4971114;28;20064;-86
2022/08/12 02:40:57;;;;;;;1.38;1.10;;;;;;;;;;4954223;28;20980;-86
2022/08/12 02:43:26;;;;;;;2.03;1.30;;;;;;;;;;4990653;28;20030;-86
2022/08/12 02:45:52;;;;;;;2.47;1.25;;;;;;;;;;5011878;28;20032;-86
2022/08/12 02:48:33;;;;;;;2.22;1.95;;;;;;;;;;5012039;28;20030;-86
2022/08/12 02:51:10;;;;;;;2.47;1.40;;;23.20;46.60;;;;;;5011895;28;20025;-86
2022/08/12 02:53:37;;;;;;;6.30;1.17;;;;;;;;;;5011913;28;20494;-85
2022/08/12 02:56:04;;;;;;;2.22;1.55;;;;;;;;;;5011685;28;20037;-86
2022/08/12 02:58:31;;;;;;;6.55;1.05;;;;;;;;;;5012020;28;20566;-86
2022/08/12 03:01:00;;;;;;;2.53;1.98;;;;;;;;;;5011799;28;20108;-85
2022/08/12 03:03:30;;;;;;;1.52;1.35;;;23.20;47.20;;;;;;5012233;28;20037;-85
2022/08/12 03:06:00;;;;;;;4.45;1.35;;;;;;;;;;5011033;28;20021;-85
2022/08/12 03:08:30;;;;;;;1.83;1.20;;;23.30;46.60;;;;;;5012098;28;20030;-85
2022/08/12 03:11:10;;;;;;;3.38;1.73;;;;;;;;;;5011168;28;20125;-87
2022/08/12 03:13:38;;;;;;;2.05;1.50;;;23.50;46.00;;;;;;5011903;28;20026;-85
2022/08/12 03:16:05;;;;;;;1.80;1.63;;;;;;;;;;4993139;28;20028;-86
2022/08/12 03:18:32;;;;;;;4.03;1.55;;;;;;;;;;4994111;28;20033;-85
2022/08/12 03:20:59;;;;;;;5.60;1.85;;;;;;;;;;5011408;28;20018;-85
2022/08/12 03:23:27;;;;;;;2.35;1.63;;;23.10;46.40;;;;;;4993500;28;20037;-86
2022/08/12 03:25:57;;;;;;;2.22;1.63;;;;;;;;;;4993558;28;20556;-86
2022/08/12 03:31:09;;;;;;;1.83;1.17;;;23.30;46.30;;;;;;5011312;28;20563;-85
2022/08/12 03:33:38;;;;;;;2.37;1.67;;;23.20;47.00;;;;;;5011531;28;20386;-85
2022/08/12 03:36:06;;;;;;;2.15;1.73;;;;;;;;;;5011179;28;20293;-85
2022/08/12 03:38:35;;;;;;;;;;;23.30;46.60;;;;;;4993755;28;20030;-85
2022/08/12 04:00:28;;;;;;;1.60;1.48;;;;;;;;;;5011288;28;20048;-85
2022/08/12 04:03:00;;;;;;;3.63;2.30;;;;;;;;;;5010897;28;20030;-85
2022/08/12 04:05:26;;;;;;;8.23;2.55;;;;;;;;;;5017729;28;20269;-84
2022/08/12 04:07:52;;;;;;;1.80;1.70;;;21.60;50.30;;;;;;5010287;28;20022;-86
2022/08/12 04:10:19;;;;;;;2.78;1.48;;;;;;;;;;5010749;28;20109;-85
2022/08/12 04:13:28;;;;;;;1.80;1.60;;;22.40;48.50;;;;;;5009502;28;20021;-85
2022/08/12 04:15:48;;;;;;;2.65;1.77;;;;;;;;;;5006466;28;20781;-85
2022/08/12 04:18:15;;;;;;;2.70;1.63;;;;;;;;;;5010347;28;20014;-85
2022/08/12 04:20:42;;;;;;;4.30;1.92;;;22.80;47.70;;;;;;5010847;28;20105;-85
2022/08/12 04:23:11;;;;;;;2.25;1.52;;;;;;;;;;5010396;28;20414;-84
2022/08/12 04:25:38;;;;;;;2.95;1.73;;;;;;;;;;5010576;28;20128;-85
2022/08/12 04:28:06;;;;;;;3.72;1.55;;;;;;;;;;5009421;28;20101;-85
2022/08/12 04:30:31;;;;;;;;;;;22.60;48.00;;;;;;5010854;28;20045;-86
2022/08/12 04:32:57;;;;;;;2.20;1.90;;;;;;;;;;5025284;28;19919;-85
2022/08/12 04:35:24;;;;;;;2.30;1.75;;;;;;;;;;5010103;28;20026;-85
2022/08/12 04:37:55;;;;;;;3.55;1.67;;;22.70;48.00;;;;;;5010414;28;20624;-86
2022/08/12 04:40:23;;;;;;;2.10;1.60;;;22.50;48.60;;;;;;4992288;28;20049;-84
2022/08/12 04:42:53;;;;;;;5.22;2.10;;;;;;;;;;5010454;28;20395;-85
2022/08/12 04:45:19;;;;;;;4.63;1.48;;;;;;;;;;5009841;28;20076;-85
2022/08/12 04:47:46;;;;;;;4.00;2.33;;;;;;;;;;5009933;28;20037;-85
2022/08/12 04:50:16;;;;;;;2.67;1.25;;;;;;;;;;5010212;28;20021;-85
2022/08/12 04:52:42;;;;;;;1.85;1.60;;;;;;;;;;5010129;28;20022;-84
2022/08/12 04:55:09;;;;;;;2.38;1.63;;;21.90;49.30;;;;;;5009688;28;20506;-85
2022/08/12 04:57:35;;;;;;;4.68;1.65;;;;;;;;;;5010135;28;20022;-84
2022/08/12 05:00:02;;;;;;;6.28;1.95;;;;;;;;;;5009708;28;20036;-86
2022/08/12 05:02:28;;;;;;;4.05;1.95;;;;;;;;;;5009758;28;20040;-85
2022/08/12 05:04:55;;;;;;;3.42;1.50;;;;;;;;;;5009631;28;20022;-85
2022/08/12 05:07:22;;;;;;;1.70;1.50;;;;;;;;;;5009670;28;20026;-85
2022/08/12 05:09:48;;;;;;;1.92;1.75;;;;;;;;;;5009497;28;20042;-85
2022/08/12 05:12:18;;;;;;;2.38;1.70;;;21.80;50.40;;;;;;5009545;28;20018;-85
2022/08/12 05:14:44;;;;;;;2.83;2.13;;;;;;;;;;5009853;28;20038;-85
2022/08/12 05:17:10;;;;;;;2.92;1.90;;;;;;;;;;4991833;28;20033;-85
2022/08/12 05:19:36;;;;;;;4.43;2.90;;;;;;;;;;5009344;28;20656;-85
2022/08/12 05:22:02;;;;;;;5.07;2.80;;;;;;;;;;5009186;28;20032;-85
2022/08/12 05:24:28;;;;;;;7.78;2.72;;;;;;;;;;5009481;28;20025;-85
2022/08/12 05:26:55;;;;;;;5.47;2.38;;;;;;;;;;5009221;28;20505;-85
2022/08/12 05:29:21;;;;;;;2.58;2.28;;;;;;;;;;4990627;28;20601;-85
2022/08/12 05:31:48;;;;;;;2.33;1.77;;;;;;;;;;4971774;28;20030;-87
2022/08/12 05:34:14;;;;;;;3.17;2.10;;;;;;;;;;4989538;28;20507;-86
2022/08/12 05:36:42;;;;;;;2.38;1.85;;;22.20;50.70;;;;;;4988785;28;20023;-87
2022/08/12 05:39:08;;;;;;;1.77;1.55;;;;;;;;;;4989327;28;20034;-88
2022/08/12 05:41:35;;;;;;;2.50;2.28;;;;;;;;;;4971932;28;20019;-87
2022/08/12 05:44:05;;;;;;;2.60;1.90;;;;;;;;;;4972244;28;20027;-87
2022/08/12 05:46:32;;;;;;;9.35;3.60;;;;;;;;;;4988934;28;20022;-87
2022/08/12 05:48:59;;;;;;;2.35;1.85;;;;;;;;;;4989534;28;20034;-88
2022/08/12 05:51:28;;;;;;;2.70;1.95;;;21.90;51.70;;;;;;4989394;28;20458;-85
2022/08/12 05:53:55;;;;;;;3.88;2.20;;;22.10;51.20;;;;;;4989605;28;20018;-86
2022/08/12 05:56:32;;;;;;;2.88;1.70;;;22.50;49.80;;;;;;4991630;28;20515;-84
2022/08/12 05:59:00;;;;;;;3.45;2.13;;;22.40;50.60;;;;;;4962249;28;20039;-86
2022/08/12 06:01:26;;;;;;;3.20;2.53;;;;;;;;;;4989287;28;20030;-85
2022/08/12 06:03:53;;;;;;;5.23;2.13;;;;;;;;;;4989215;28;20030;-85
2022/08/12 06:06:19;;;;;;;2.97;1.80;;;;;;;;;;4988672;28;20031;-85
2022/08/12 06:08:47;;;;;;;7.68;2.20;;;;;;;;;;4989520;28;20526;-85
2022/08/12 06:11:16;;;;;;;;;;;22.80;50.90;;;;;;4989885;28;20500;-85
2022/08/12 06:13:43;;;;;;;3.45;2.00;;;23.00;50.70;;;;;;4989529;28;19953;-84
2022/08/12 06:16:11;;;;;;;3.45;2.30;;;23.30;50.20;;;;;;4989460;28;20026;-85
2022/08/12 06:18:41;;;;;;;2.88;2.50;;;;;;;;;;4988766;28;20093;-85
2022/08/12 06:21:11;;;;;;;4.10;2.25;;;23.10;50.40;;;;;;4989320;28;20034;-87
2022/08/12 06:23:37;;;;;;;3.03;2.08;;;;;;;;;;4989179;28;20412;-85
2022/08/12 06:26:04;;;;;;;3.88;2.38;;;23.50;50.30;;;;;;4989346;28;20038;-86
2022/08/12 06:28:30;;;;;;;4.87;2.37;;;;;;;;;;4988858;28;20034;-84
2022/08/12 06:30:57;;;;;;;4.82;2.08;;;;;;;;;;5003085;28;20717;-84
2022/08/12 06:33:24;;;;;;;2.10;1.60;;;;;;;;;;4990696;28;20491;-85
2022/08/12 06:35:50;;;;;;;1.98;1.42;;;24.50;46.60;;;;;;4991194;28;20117;-86
2022/08/12 06:38:16;;;;;;;2.72;1.60;;;;;;;;;;5023597;28;20405;-85
2022/08/12 06:43:29;;;;;;;2.90;1.67;;;24.90;46.20;;;;;;5008682;28;20033;-85
2022/08/12 06:45:56;;;;;;;4.35;1.75;;;;;;;;;;5008540;28;20462;-85
2022/08/12 06:48:24;;;;;;;2.67;2.05;;;;;;;;;;5007923;28;20093;-86
2022/08/12 06:50:50;;;;;;;2.22;1.58;;;;;;;;;;4991035;28;20139;-85
2022/08/12 06:53:15;;;;;;;3.20;1.92;;;;;;;;;;4994094;28;20022;-85
2022/08/12 06:55:42;;;;;;;2.53;1.73;;;;;;;;;;4994363;28;20041;-86
2022/08/12 06:58:08;;;;;;;3.03;2.22;;;;;;;;;;5011969;28;20030;-85
2022/08/12 07:00:34;;;;;;;2.25;1.42;;;;;;;;;;4994397;28;20502;-85
2022/08/12 07:03:02;;;;;;;3.70;1.70;;;25.70;44.00;;;;;;5011716;28;20084;-85
2022/08/12 07:05:28;;;;;;;2.13;1.85;;;;;;;;;;4993586;28;20040;-84
2022/08/12 07:08:05;;;;;;;16.08;2.70;;;;;;;;;;5012040;28;20032;-85
2022/08/12 07:10:32;;;;;;;5.43;2.38;;;27.60;42.90;;;;;;5007171;28;20742;-85
2022/08/12 07:13:00;;;;;;;4.72;4.43;;;29.00;40.70;;;;;;4994190;28;20030;-85
2022/08/12 07:15:26;;;;;;;4.25;3.95;;;;;;;;;;5011334;28;20524;-85
2022/08/12 07:20:36;;;;;;;3.70;3.40;;;31.70;36.50;;;;;;5011418;28;20608;-85
2022/08/12 07:23:04;;;;;;;3.50;3.28;;;32.60;35.50;;;;;;4994189;28;20057;-87
2022/08/12 07:25:33;;;;;;;5.00;3.20;;;33.70;34.30;;;;;;5010943;28;20041;-85
2022/08/12 07:28:04;;;;;;;5.18;3.50;;;35.60;32.50;;;;;;5011314;28;20085;-85
2022/08/12 07:30:36;;;;;;;3.42;3.22;;;37.00;29.80;;;;;;5010693;28;20466;-86
2022/08/12 07:33:03;;;;;;;3.47;3.28;;;;;;;;;;5011285;28;20034;-86
2022/08/12 07:35:31;;;;;;;8.95;3.75;;;38.50;28.40;;;;;;5010988;28;20252;-85
2022/08/12 07:37:59;;;;;;;3.40;3.20;;;;;;;;;;5011516;28;20107;-86
2022/08/12 07:40:25;;;;;;;5.10;3.05;;;;;;;;;;5010814;28;20033;-86
2022/08/12 07:42:51;;;;;;;3.35;3.15;;;;;;;;;;4993540;28;20164;-85
2022/08/12 07:45:19;;;;;;;3.55;3.35;;;;;;;;;;5010494;28;20033;-87
2022/08/12 07:47:46;;;;;;;4.75;3.08;;;40.90;26.90;;;;;;5010664;28;20616;-87
2022/08/12 07:50:15;;;;;;;3.00;2.80;;;41.30;26.50;;;;;;5010851;28;20033;-86
2022/08/12 07:52:43;;;;;;;4.95;3.00;;;40.80;26.20;;;;;;5002017;28;20022;-86
2022/08/12 07:55:10;;;;;;;3.63;2.95;;;42.10;26.40;;;;;;4977511;28;20057;-85
2022/08/12 07:57:52;;;;;;;2.90;2.70;;;42.50;25.80;;;;;;5010459;28;20490;-85
2022/08/12 08:00:18;;;;;;;3.08;2.80;;;;;;;;;;5010013;28;20034;-86
2022/08/12 08:02:44;;;;;;;4.97;4.47;;;;;;;;;;5004109;28;20021;-86
2022/08/12 08:05:09;;;;;;;;;;;41.90;25.70;;;;;;5010991;28;20574;-86
2022/08/12 08:07:35;;;;;;;6.57;3.13;;;;;;;;;;5010556;28;20003;-87
2022/08/12 08:10:09;;;;;;;;;;;42.10;25.60;;;;;;5011065;28;20040;-85
2022/08/12 08:12:54;;;;;;;2.63;2.42;;;;;;;;;;5009941;28;19929;-86
2022/08/12 08:15:35;;;;;;;6.65;2.58;;;40.90;25.80;;;;;;5010450;28;20038;-86
2022/08/12 08:18:04;;;;;;;1.92;1.83;;;40.30;25.50;;;;;;5010378;28;20104;-85
2022/08/12 08:20:33;;;;;;;3.05;2.08;;;40.30;26.60;;;;;;5010483;28;20075;-86
2022/08/12 08:23:04;;;;;;;4.55;1.83;;;41.40;26.00;;;;;;4992206;28;20105;-86
2022/08/12 08:25:30;;;;;;;1.60;1.48;;;;;;;;;;5010155;28;20513;-86
2022/08/12 08:27:57;;;;;;;;;;;40.90;26.00;;;;;;4992445;28;20446;-86
2022/08/12 08:30:23;;;;;;;2.78;0.70;;;;;;;;;;5009984;28;19968;-85
2022/08/12 08:32:49;;;;;;;;;;;;;;;;;;5010515;28;20033;-85
2022/08/12 08:35:15;;;;;;;1.35;0.93;;;;;;;;;;5009876;28;19976;-85
2022/08/12 08:37:45;;;;;;;;;;;42.10;25.00;;;;;;4992171;28;20753;-86
2022/08/12 08:42:56;;;;;;;3.38;1.38;;;;;;;;;;5009326;28;20565;-86
2022/08/12 08:45:22;;;;;;;;;;;43.30;25.00;;;;;;5010410;28;20029;-86
2022/08/12 08:47:48;;;;;;;3.25;1.15;;;42.80;24.70;;;;;;5009402;28;19905;-86
2022/08/12 08:50:15;;;;;;;3.25;0.98;;;;;;;;;;5009841;28;20028;-86
2022/08/12 08:52:41;;;;;;;0.90;0.65;;;42.90;24.40;;;;;;5009794;28;20043;-86
2022/08/12 08:55:14;;;;;;;2.90;1.02;;;43.40;25.00;;;;;;5009574;28;20037;-86
2022/08/12 08:57:42;;;;;;;1.08;0.73;;;;;;;;;;5009402;28;20096;-86
2022/08/12 09:00:15;;;;;;;2.60;1.30;;;42.80;24.60;;;;;;5009938;28;20028;-86
2022/08/12 09:02:42;;;;;;;2.08;0.85;;;;;;;;;;4992260;28;20049;-86
2022/08/12 09:05:07;;;;;;;;;;;43.50;24.60;;;;;;5009626;28;20061;-86
2022/08/12 09:08:01;;;;;;;4.57;1.05;;;43.60;24.10;;;;;;5009307;28;19936;-87
2022/08/12 09:10:28;;;;;;;1.55;1.08;;;;;;;;;;5001889;28;20053;-88
2022/08/12 09:15:38;;;;;;;5.65;1.33;;;;;;;;;;5009271;28;19916;-86
2022/08/12 09:18:05;;;;;;;;;;;43.60;24.70;;;;;;5010239;28;20033;-87
2022/08/12 09:20:33;;;;;;;2.30;1.08;;;44.20;24.50;;;;;;5009302;28;19995;-87
2022/08/12 09:23:00;;;;;;;1.38;0.77;;;45.10;24.30;;;;;;4991309;28;20022;-86
2022/08/12 09:25:27;;;;;;;0.93;0.63;;;;;;;;;;5024567;28;20061;-87
2022/08/12 09:27:53;;;;;;;3.83;1.10;;;;;;;;;;5008930;28;20461;-86
2022/08/12 09:30:20;;;;;;;1.35;0.95;;;44.60;24.00;;;;;;5008831;28;20706;-86
2022/08/12 09:32:50;;;;;;;0.95;0.85;;;;;;;;;;5009414;28;20034;-86
2022/08/12 09:35:30;;;;;;;2.47;1.13;;;44.40;23.70;;;;;;5008517;28;20041;-87
2022/08/12 09:37:56;;;;;;;1.77;1.67;;;;;;;;;;5009499;28;20032;-86
2022/08/12 09:40:23;;;;;;;2.17;1.10;;;44.80;23.50;;;;;;5009005;28;20034;-87
2022/08/12 09:45:35;;;;;;;2.33;1.10;;;45.40;23.60;;;;;;5009012;28;20536;-87
2022/08/12 09:48:05;;;;;;;2.17;1.02;;;45.10;23.80;;;;;;5009666;28;20030;-87
2022/08/12 09:50:32;;;;;;;6.40;1.40;;;44.60;24.00;;;;;;5009198;28;20053;-87
2022/08/12 09:53:23;;;;;;;0.80;0.80;;;44.10;24.00;;;;;;4991608;28;20026;-87
2022/08/12 09:55:55;;;;;;;1.73;0.98;;;44.30;23.90;;;;;;5009369;28;20453;-86
2022/08/12 09:58:28;;;;;;;1.95;0.77;;;44.10;24.10;;;;;;5028575;28;20053;-87
2022/08/12 10:01:03;;;;;;;10.35;1.58;;;44.80;24.10;;;;;;4993881;28;20026;-86
2022/08/12 10:03:30;;;;;;;0.80;0.75;;;44.60;23.20;;;;;;5009253;28;20026;-87
2022/08/12 10:05:58;;;;;;;1.63;0.93;;;43.80;23.40;;;;;;5008704;28;20502;-87
2022/08/12 10:08:26;;;;;;;1.45;1.02;;;44.60;23.20;;;;;;5009434;28;20054;-86
2022/08/12 10:13:41;;;;;;;1.30;0.85;;;45.70;22.50;;;;;;5009449;28;20791;-87
2022/08/12 10:16:12;;;;;;;2.00;0.65;;;46.00;22.00;;;;;;4991333;28;20029;-87
2022/08/12 10:18:45;;;;;;;3.03;0.60;;;45.10;21.80;;;;;;4991529;28;20030;-87
2022/08/12 10:21:16;;;;;;;0.93;0.60;;;45.00;21.90;;;;;;4991167;28;20049;-86
2022/08/12 10:23:44;;;;;;;1.25;0.77;;;45.20;21.80;;;;;;4991547;28;20026;-86
2022/08/12 10:31:56;;;;;;;2.50;0.53;;;;;;;;;;4928893;29;20075;-88
2022/08/12 10:34:22;;;;;;;1.08;0.40;;;;;;;;;;4932779;29;20035;-88
2022/08/12 10:36:50;;;;;;;4.38;1.00;;;44.90;21.80;;;;;;4932603;29;20020;-87
2022/08/12 10:39:18;;;;;;;1.05;0.57;;;44.60;22.20;;;;;;4932625;29;20592;-86
2022/08/12 10:44:29;;;;;;;0.75;0.60;;;;;;;;;;4933012;29;20468;-87
2022/08/12 10:46:56;;;;;;;3.10;0.63;;;44.10;22.70;;;;;;4932693;29;20406;-87
2022/08/12 10:49:27;;;;;;;1.27;0.60;;;44.50;22.70;;;;;;4932894;29;20103;-87
2022/08/12 10:51:54;;;;;;;0.73;0.60;;;44.10;22.30;;;;;;4932456;29;20070;-87
2022/08/12 10:54:21;;;;;;;1.20;0.90;;;43.80;22.90;;;;;;4932404;29;20824;-87
2022/08/12 10:56:48;;;;;;;1.42;1.23;;;;;;;;;;4932206;29;20027;-87
2022/08/12 10:59:14;;;;;;;1.50;0.98;;;43.00;23.20;;;;;;4932894;29;20812;-87
2022/08/12 11:01:41;;;;;;;;;;;42.40;23.30;;;;;;4918533;29;20026;-87
2022/08/12 11:04:12;;;;;;;2.00;1.02;;;;;;;;;;4936003;28;19975;-87
2022/08/12 11:06:40;;;;;;;0.80;0.68;;;;;;;;;;4997240;28;20017;-87
2022/08/12 11:09:06;;;;;;;1.45;0.80;;;;;;;;;;5012486;28;20073;-87
2022/08/12 11:11:34;;;;;;;1.63;1.00;;;;;;;;;;5003890;28;20080;-86
2022/08/12 11:14:00;;;;;;;1.25;0.95;;;;;;;;;;5012454;28;20088;-87
2022/08/12 11:16:28;;;;;;;1.98;1.67;;;;;;;;;;5012318;28;20490;-87
2022/08/12 11:18:54;;;;;;;12.32;1.08;;;;;;;;;;5012252;28;20519;-87
2022/08/12 11:21:20;;;;;;;2.25;1.00;;;;;;;;;;5012293;28;20030;-87
2022/08/12 11:23:46;;;;;;;2.85;0.90;;;;;;;;;;4994222;28;20033;-87
2022/08/12 11:26:12;;;;;;;1.00;0.85;;;;;;;;;;5012614;28;20121;-86
2022/08/12 11:28:38;;;;;;;2.08;1.38;;;;;;;;;;4994423;28;20635;-87
2022/08/12 11:31:06;;;;;;;1.45;1.17;;;38.80;25.40;;;;;;5010916;28;20056;-87
2022/08/12 11:33:33;;;;;;;2.30;1.48;;;;;;;;;;5023907;28;20030;-87
2022/08/12 11:36:06;;;;;;;0.90;0.73;;;38.60;25.80;;;;;;4991572;28;20030;-87
2022/08/12 11:38:32;;;;;;;1.35;0.90;;;;;;;;;;4993360;28;20107;-87
2022/08/12 11:40:58;;;;;;;0.80;0.70;;;;;;;;;;5012100;28;20060;-87
2022/08/12 11:43:24;;;;;;;1.85;1.10;;;;;;;;;;5012076;28;20522;-87
2022/08/12 11:45:50;;;;;;;2.80;0.77;;;;;;;;;;4994358;28;20030;-86
2022/08/12 11:48:17;;;;;;;2.85;1.17;;;;;;;;;;5014747;28;20128;-87
2022/08/12 11:50:43;;;;;;;;;;;37.90;25.90;;;;;;5022349;28;20410;-87
2022/08/12 11:53:09;;;;;;;2.47;1.10;;;;;;;;;;5011498;28;19909;-87
2022/08/12 11:55:35;;;;;;;2.78;0.63;;;;;;;;;;5011467;28;20034;-87
2022/08/12 11:58:01;;;;;;;1.50;1.40;;;;;;;;;;5011132;28;20018;-87
2022/08/12 12:00:27;;;;;;;2.20;1.48;;;;;;;;;;5011911;28;20026;-86
2022/08/12 12:02:53;;;;;;;1.05;0.88;;;;;;;;;;5011833;28;20030;-87
2022/08/12 12:05:20;;;;;;;1.15;0.88;;;;;;;;;;5011327;28;20510;-86
2022/08/12 12:07:46;;;;;;;2.83;1.17;;;;;;;;;;5011167;28;20029;-87
2022/08/12 12:10:14;;;;;;;1.52;0.98;;;;;;;;;;5011364;28;20037;-87
2022/08/12 12:12:41;;;;;;;5.95;1.35;;;;;;;;;;5011624;28;20057;-87
2022/08/12 12:15:06;;;;;;;;;;;;;;;;;;4993705;28;20072;-87
2022/08/12 12:17:36;;;;;;;1.27;0.93;;;36.60;26.60;;;;;;5011052;28;19961;-86
2022/08/12 12:20:13;;;;;;;1.30;1.00;;;36.50;26.20;;;;;;4993613;28;20038;-87
2022/08/12 12:22:40;;;;;;;2.50;0.93;;;36.60;26.30;;;;;;5011476;28;20161;-87
2022/08/12 12:25:07;;;;;;;0.90;0.73;;;;;;;;;;5010760;28;20081;-87
2022/08/12 12:28:02;;;;;;;;;;;36.60;27.20;;;;;;5011863;28;20117;-87
2022/08/12 12:30:28;;;;;;;1.53;1.17;;;;;;;;;;4997345;28;20390;-88
2022/08/12 12:32:54;;;;;;;1.58;0.80;;;;;;;;;;4992993;28;20033;-87
2022/08/12 12:35:20;;;;;;;1.10;1.00;;;;;;;;;;5002442;28;20037;-86
2022/08/12 12:38:01;;;;;;;1.13;0.90;;;36.60;26.90;;;;;;5010628;28;20138;-86
2022/08/12 12:40:28;;;;;;;2.63;1.17;;;36.50;26.90;;;;;;4993223;28;20065;-87
2022/08/12 12:42:54;;;;;;;1.10;1.00;;;;;;;;;;4993388;28;20514;-87
2022/08/12 12:45:21;;;;;;;2.28;1.23;;;36.10;26.30;;;;;;5002157;28;20053;-86
2022/08/12 12:47:46;;;;;;;;;;;;;;;;;;4994003;28;20048;-87
2022/08/12 12:50:12;;;;;;;3.13;0.55;;;;;;;;;;4991565;28;20431;-86
2022/08/12 12:52:38;;;;;;;1.77;1.02;;;;;;;;;;4992548;28;20076;-88
2022/08/12 12:55:05;;;;;;;2.22;1.20;;;;;;;;;;4991697;28;20038;-88
2022/08/12 12:57:38;;;;;;;1.77;0.80;;;35.80;26.00;;;;;;5009426;28;20041;-87
2022/08/12 13:00:19;;;;;;;1.27;0.63;;;36.00;43.30;;;;;;5024193;28;20033;-87
2022/08/12 13:02:51;;;;;;;3.70;1.10;;;;;;;;;;4978769;28;20026;-87
2022/08/12 13:05:28;;;;;;;0.65;0.55;;;;;;;;;;5009505;28;20046;-87
2022/08/12 13:07:56;;;;;;;1.00;0.73;;;35.90;25.00;;;;;;4999323;28;20479;-87
2022/08/12 13:10:22;;;;;;;1.05;0.52;;;;;;;;;;4992491;28;20041;-88
2022/08/12 13:12:49;;;;;;;5.82;0.43;;;;;;;;;;4992895;28;20025;-87
2022/08/12 13:15:15;;;;;;;0.75;0.50;;;;;;;;;;4992677;28;20044;-87
2022/08/12 13:17:49;;;;;;;2.85;0.40;;;36.10;22.70;;;;;;5010087;28;20076;-87
2022/08/12 13:20:19;;;;;;;0.90;0.32;;;36.10;22.10;;;;;;5010076;28;20521;-87
2022/08/12 13:22:46;;;;;;;1.73;0.90;;;36.00;23.00;;;;;;4992089;28;20061;-87
2022/08/12 13:25:14;;;;;;;0.77;0.50;;;36.10;23.00;;;;;;5010242;28;20116;-88
2022/08/12 13:27:44;;;;;;;1.50;0.43;;;;;;;;;;5010084;28;20029;-88
2022/08/12 13:30:12;;;;;;;0.70;0.40;;;36.10;23.80;;;;;;5010126;28;20061;-87
2022/08/12 13:32:40;;;;;;;5.35;0.88;;;;;;;;;;5009578;28;20022;-87
2022/08/12 13:35:06;;;;;;;0.77;0.70;;;;;;;;;;5009878;28;20112;-88
2022/08/12 13:37:32;;;;;;;1.15;0.57;;;;;;;;;;5009812;28;20026;-88
2022/08/12 13:39:58;;;;;;;0.40;0.40;;;;;;;;;;5010184;28;20161;-87
2022/08/12 13:42:24;;;;;;;0.70;0.50;;;;;;;;;;4992221;28;20116;-88
2022/08/12 13:44:51;;;;;;;2.58;1.02;;;;;;;;;;5010204;28;20407;-87
2022/08/12 13:47:18;;;;;;;1.13;0.45;;;;;;;;;;5009970;28;20040;-86
2022/08/12 13:49:45;;;;;;;0.70;0.55;;;;;;;;;;5010252;28;20041;-88
2022/08/12 13:52:10;;;;;;;;;;;35.70;22.40;;;;;;5022851;28;20026;-88
2022/08/12 13:54:36;;;;;;;1.02;0.38;;;;;;;;;;5025119;28;19905;-87
2022/08/12 13:57:02;;;;;;;1.00;0.50;;;;;;;;;;5009598;28;20411;-88
2022/08/12 13:59:28;;;;;;;0.85;0.50;;;;;;;;;;5010272;28;20018;-88
2022/08/12 14:01:56;;;;;;;0.90;0.50;;;;;;;;;;5015102;28;20545;-88
2022/08/12 14:04:22;;;;;;;0.50;0.30;;;;;;;;;;5008353;28;20040;-88
2022/08/12 14:06:50;;;;;;;0.93;0.50;;;;;;;;;;5016122;28;20026;-88
2022/08/12 14:09:16;;;;;;;0.70;0.40;;;;;;;;;;5016011;28;20049;-88
2022/08/12 14:11:43;;;;;;;1.80;0.52;;;;;;;;;;5016230;28;20038;-88
2022/08/12 14:14:10;;;;;;;1.40;1.30;;;;;;;;;;5015902;28;20049;-86
2022/08/12 14:16:36;;;;;;;0.47;0.30;;;;;;;;;;4998660;28;20026;-88
2022/08/12 14:19:02;;;;;;;1.17;0.45;;;;;;;;;;5015430;28;20049;-88
2022/08/12 14:21:28;;;;;;;0.60;0.30;;;;;;;;;;5012976;28;20029;-88
2022/08/12 14:23:54;;;;;;;0.77;0.32;;;;;;;;;;4998771;28;20045;-89
2022/08/12 14:26:23;;;;;;;3.88;0.50;;;;;;;;;;4998377;28;20037;-88
2022/08/12 14:28:52;;;;;;;1.67;0.45;;;;;;;;;;5016073;28;20045;-87
2022/08/12 14:31:20;;;;;;;0.60;0.60;;;;;;;;;;4998810;28;20054;-88
2022/08/12 14:33:47;;;;;;;0.73;0.38;;;35.20;22.90;;;;;;4991674;28;20035;-88
2022/08/12 14:36:18;;;;;;;0.55;0.30;;;35.10;22.90;;;;;;4995516;28;20506;-88
2022/08/12 14:38:44;;;;;;;1.83;0.50;;;;;;;;;;4992876;28;20034;-87
2022/08/12 14:41:15;;;;;;;0.47;0.40;;;35.10;23.00;;;;;;4995085;28;20019;-88
2022/08/12 14:43:45;;;;;;;1.83;1.25;;;35.00;25.90;;;;;;4978669;28;20129;-87
2022/08/12 14:46:14;;;;;;;1.25;1.02;;;35.00;27.20;;;;;;4996348;28;20082;-89
2022/08/12 14:48:45;;;;;;;1.80;1.00;;;;;;;;;;4995606;28;20514;-88
2022/08/12 14:51:11;;;;;;;1.55;1.23;;;;;;;;;;4978851;28;20037;-88
2022/08/12 14:53:40;;;;;;;2.50;1.42;;;34.90;27.30;;;;;;4996783;28;20014;-88
2022/08/12 14:56:06;;;;;;;3.22;0.95;;;;;;;;;;4996619;28;20034;-87
2022/08/12 14:58:32;;;;;;;1.20;0.85;;;;;;;;;;4978914;28;20034;-88
2022/08/12 15:03:43;;;;;;;1.67;1.02;;;;;;;;;;4996676;28;20616;-87
2022/08/12 15:06:10;;;;;;;1.80;1.38;;;34.50;29.10;;;;;;4978177;28;20030;-88
2022/08/12 15:08:39;;;;;;;;;;;34.40;28.70;;;;;;4979259;28;20062;-88
2022/08/12 15:11:07;;;;;;;1.50;1.25;;;34.40;28.90;;;;;;4995307;28;19912;-88
2022/08/12 15:13:34;;;;;;;1.50;1.10;;;34.40;29.00;;;;;;5007678;28;20036;-87
2022/08/12 15:16:02;;;;;;;3.83;1.02;;;34.40;28.80;;;;;;4992481;28;20018;-87
2022/08/12 15:18:30;;;;;;;1.63;1.00;;;34.30;29.00;;;;;;4993149;28;20027;-88
2022/08/12 15:20:57;;;;;;;1.95;1.77;;;34.30;29.00;;;;;;4992427;28;20479;-88
2022/08/12 15:23:24;;;;;;;1.63;1.38;;;;;;;;;;4992949;28;20395;-87
2022/08/12 15:25:53;;;;;;;1.77;1.02;;;34.10;28.70;;;;;;4992898;28;20058;-88
2022/08/12 15:28:23;;;;;;;1.67;1.23;;;;;;;;;;4975256;28;20078;-87
2022/08/12 15:30:51;;;;;;;1.20;0.98;;;;;;;;;;4996865;28;20077;-87
2022/08/12 15:33:17;;;;;;;1.73;1.17;;;;;;;;;;4992894;28;20042;-87
2022/08/12 15:35:43;;;;;;;1.90;0.90;;;;;;;;;;4991940;28;20034;-87
2022/08/12 15:38:11;;;;;;;3.20;0.68;;;33.70;29.00;;;;;;4974975;28;20026;-88
2022/08/12 15:40:39;;;;;;;2.08;0.98;;;33.80;29.30;;;;;;4992000;28;20122;-87
2022/08/12 15:43:06;;;;;;;4.22;1.27;;;33.90;29.40;;;;;;4992068;28;20027;-87
2022/08/12 15:45:32;;;;;;;;;;;33.80;28.80;;;;;;4992162;28;20542;-87
2022/08/12 15:47:59;;;;;;;1.27;0.95;;;;;;;;;;4992506;28;19981;-88
2022/08/12 15:50:25;;;;;;;1.65;1.10;;;33.60;28.90;;;;;;4992213;28;20514;-87
2022/08/12 15:52:51;;;;;;;;;;;33.60;28.90;;;;;;4976052;28;20077;-88
2022/08/12 15:55:18;;;;;;;3.90;1.83;;;;;;;;;;4992227;28;19909;-87
2022/08/12 15:57:49;;;;;;;1.98;1.50;;;;;;;;;;4991191;28;20038;-87
2022/08/12 16:00:16;;;;;;;2.30;1.73;;;33.40;28.90;;;;;;4992131;28;20060;-86